Time;durP1;ratioP1;P1;durP2;ratioP2;P2;SDS_P1;SDS_P2;PMS_P1;PMS_P2;Temp;Humidity;BMP_temperature;BMP_pressure;BME280_temperature;BME280_humidity;BME280_pressure;Samples;Min_cycle;Max_cycle;Signal;HPM_P1;HPM_P2
2022/05/17 00:01:01;;;;;;;;;;;17.10;87.30;;;;;;5066713;28;19920;-71
2022/05/17 00:03:27;;;;;;;;;;;17.10;87.60;;;;;;5063878;28;20549;-70
2022/05/17 00:05:53;;;;;;;;;;;17.20;87.70;;;;;;5059657;28;19913;-70
2022/05/17 00:08:18;;;;;;;;;;;17.10;87.60;;;;;;5046851;28;19924;-70
2022/05/17 00:10:45;;;;;;;;;;;17.10;87.70;;;;;;5046260;28;19912;-71
2022/05/17 00:13:10;;;;;;;;;;;17.10;87.70;;;;;;5051126;28;19999;-71
2022/05/17 00:15:38;;;;;;;;;;;17.10;87.40;;;;;;5065875;28;20028;-71
2022/05/17 00:18:16;;;;;;;;;;;17.00;87.40;;;;;;5063614;28;20684;-71
2022/05/17 00:20:43;;;;;;;;;;;17.00;87.60;;;;;;5065125;28;20661;-70
2022/05/17 00:23:09;;;;;;;;;;;17.00;87.50;;;;;;5062210;28;19956;-71
2022/05/17 00:25:35;;;;;;;;;;;17.00;87.50;;;;;;5046073;28;19912;-70
2022/05/17 00:28:01;;;;;;;;;;;17.00;88.00;;;;;;5044649;28;20294;-71
2022/05/17 00:30:26;;;;;;;;;;;17.00;88.00;;;;;;5055653;28;19974;-71
2022/05/17 00:32:51;;;;;;;;;;;16.90;87.90;;;;;;5045690;28;19967;-71
2022/05/17 00:35:17;;;;;;;;;;;16.90;87.90;;;;;;5060833;28;19930;-71
2022/05/17 00:37:42;;;;;;;;;;;16.90;87.40;;;;;;5062480;28;19923;-70
2022/05/17 00:40:09;;;;;;;;;;;16.90;87.50;;;;;;5057776;28;19913;-70
2022/05/17 00:42:35;;;;;;;;;;;16.90;87.50;;;;;;5064800;28;20447;-70
2022/05/17 00:45:00;;;;;;;;;;;16.90;87.80;;;;;;5061496;28;19913;-71
2022/05/17 00:47:30;;;;;;;;;;;16.90;87.70;;;;;;5045877;28;19987;-70
2022/05/17 00:50:01;;;;;;;;;;;16.80;87.70;;;;;;5061354;28;19916;-71
2022/05/17 00:52:36;;;;;;;;;;;16.80;87.60;;;;;;5059987;28;19925;-71
2022/05/17 00:55:06;;;;;;;;;;;16.80;87.70;;;;;;5052090;28;20293;-71
2022/05/17 00:57:35;;;;;;;;;;;16.80;87.60;;;;;;5065272;28;19920;-71
2022/05/17 01:00:04;;;;;;;;;;;16.80;87.70;;;;;;5062275;28;19912;-71
2022/05/17 01:02:31;;;;;;;;;;;16.80;87.50;;;;;;5063710;28;19938;-71
2022/05/17 01:04:57;;;;;;;;;;;16.80;87.70;;;;;;5062176;28;19954;-71
2022/05/17 01:07:24;;;;;;;;;;;16.70;87.70;;;;;;5047353;28;20015;-70
2022/05/17 01:09:49;;;;;;;;;;;16.70;87.60;;;;;;5045564;28;19916;-71
2022/05/17 01:12:15;;;;;;;;;;;16.70;88.00;;;;;;5041947;28;20153;-71
2022/05/17 01:15:00;;;;;;;;;;;16.70;88.10;;;;;;5043646;28;19912;-71
2022/05/17 01:17:26;;;;;;;;;;;16.70;88.20;;;;;;5064787;28;20058;-72
2022/05/17 01:19:52;;;;;;;;;;;16.70;88.50;;;;;;5058034;28;20293;-70
2022/05/17 01:22:18;;;;;;;;;;;16.60;88.90;;;;;;5045872;28;19917;-71
2022/05/17 01:24:43;;;;;;;;;;;16.60;89.10;;;;;;5065369;28;19912;-71
2022/05/17 01:27:12;;;;;;;;;;;16.60;88.70;;;;;;5043873;28;19955;-71
2022/05/17 01:29:39;;;;;;;;;;;16.60;88.90;;;;;;5043980;28;19909;-71
2022/05/17 01:32:04;;;;;;;;;;;16.60;88.90;;;;;;5059012;28;20407;-70
2022/05/17 01:34:30;;;;;;;;;;;16.60;89.00;;;;;;5069714;28;19912;-71
2022/05/17 01:36:56;;;;;;;;;;;16.50;88.70;;;;;;5060965;28;19950;-71
2022/05/17 01:39:21;;;;;;;;;;;16.50;89.00;;;;;;5055382;28;19917;-71
2022/05/17 01:41:47;;;;;;;;;;;16.50;89.20;;;;;;5058162;28;19916;-71
2022/05/17 01:44:12;;;;;;;;;;;16.50;89.10;;;;;;5071219;28;20001;-71
2022/05/17 01:46:38;;;;;;;;;;;16.50;89.00;;;;;;5050373;28;19924;-71
2022/05/17 01:49:03;;;;;;;;;;;16.50;89.30;;;;;;5056295;28;20432;-71
2022/05/17 01:51:29;;;;;;;;;;;16.40;89.40;;;;;;5052109;28;19920;-71
2022/05/17 01:53:54;;;;;;;;;;;16.40;89.50;;;;;;5053764;28;19913;-71
2022/05/17 01:56:20;;;;;;;;;;;16.40;89.50;;;;;;5049540;28;19913;-71
2022/05/17 01:58:45;;;;;;;;;;;16.40;89.60;;;;;;5071059;28;20635;-71
2022/05/17 02:01:11;;;;;;;;;;;16.40;89.50;;;;;;5047635;28;19917;-71
2022/05/17 02:03:37;;;;;;;;;;;16.30;89.60;;;;;;5066659;28;19920;-71
2022/05/17 02:06:02;;;;;;;;;;;16.40;89.40;;;;;;5064668;28;19913;-71
2022/05/17 02:08:29;;;;;;;;;;;16.30;89.30;;;;;;5052072;28;19997;-71
2022/05/17 02:10:55;;;;;;;;;;;16.30;89.10;;;;;;5038702;28;19913;-71
2022/05/17 02:13:21;;;;;;;;;;;16.30;89.30;;;;;;5053213;28;19916;-71
2022/05/17 02:15:46;;;;;;;;;;;16.30;89.10;;;;;;5070870;28;19921;-71
2022/05/17 02:18:11;;;;;;;;;;;16.30;89.10;;;;;;5068482;28;19917;-71
2022/05/17 02:20:37;;;;;;;;;;;16.20;89.20;;;;;;5059239;28;19912;-70
2022/05/17 02:23:02;;;;;;;;;;;16.20;89.30;;;;;;5054745;28;19917;-71
2022/05/17 02:25:28;;;;;;;;;;;16.20;89.60;;;;;;5052724;28;19912;-71
2022/05/17 02:27:54;;;;;;;;;;;16.20;89.90;;;;;;5068405;28;19925;-71
2022/05/17 02:30:19;;;;;;;;;;;16.20;89.80;;;;;;5060372;28;19916;-71
2022/05/17 02:32:45;;;;;;;;;;;16.20;90.00;;;;;;5049213;28;19959;-71
2022/05/17 02:35:12;;;;;;;;;;;16.20;89.80;;;;;;5069646;28;19947;-71
2022/05/17 02:37:38;;;;;;;;;;;16.20;89.60;;;;;;5068626;28;19919;-71
2022/05/17 02:40:05;;;;;;;;;;;16.10;89.80;;;;;;5066574;28;19913;-71
2022/05/17 02:42:30;;;;;;;;;;;16.10;89.60;;;;;;5070818;28;19916;-71
2022/05/17 02:44:55;;;;;;;;;;;16.10;89.90;;;;;;5064876;28;19916;-70
2022/05/17 02:47:21;;;;;;;;;;;16.10;89.80;;;;;;5068012;28;19917;-71
2022/05/17 02:49:47;;;;;;;;;;;16.10;89.80;;;;;;5064911;28;19952;-70
2022/05/17 02:52:12;;;;;;;;;;;16.00;89.80;;;;;;5060310;28;19914;-71
2022/05/17 02:54:39;;;;;;;;;;;16.00;89.70;;;;;;5044575;28;20454;-71
2022/05/17 02:57:05;;;;;;;;;;;16.00;89.70;;;;;;5064848;28;19912;-71
2022/05/17 02:59:31;;;;;;;;;;;16.00;89.80;;;;;;5052396;28;20673;-71
2022/05/17 03:01:57;;;;;;;;;;;16.00;89.70;;;;;;5067584;28;20003;-71
2022/05/17 03:04:22;;;;;;;;;;;16.00;89.60;;;;;;5064907;28;19948;-71
2022/05/17 03:06:48;;;;;;;;;;;16.00;89.40;;;;;;5054231;28;20019;-71
2022/05/17 03:09:13;;;;;;;;;;;16.00;89.60;;;;;;5045883;28;20372;-70
2022/05/17 03:11:42;;;;;;;;;;;16.00;89.40;;;;;;5067048;28;19963;-71
2022/05/17 03:14:08;;;;;;;;;;;15.90;89.50;;;;;;5025983;28;20433;-71
2022/05/17 03:16:33;;;;;;;;;;;15.90;89.40;;;;;;5053655;28;20616;-71
2022/05/17 03:19:00;;;;;;;;;;;15.90;89.60;;;;;;5044028;28;20015;-71
2022/05/17 03:21:26;;;;;;;;;;;15.90;89.50;;;;;;5062057;28;19920;-71
2022/05/17 03:23:51;;;;;;;;;;;15.90;89.40;;;;;;5066880;28;20535;-71
2022/05/17 03:26:17;;;;;;;;;;;15.90;89.50;;;;;;5063852;28;19947;-71
2022/05/17 03:28:42;;;;;;;;;;;15.90;90.00;;;;;;5051139;28;19921;-71
2022/05/17 03:31:08;;;;;;;;;;;15.90;89.30;;;;;;5055147;28;19924;-71
2022/05/17 03:33:34;;;;;;;;;;;15.90;89.20;;;;;;5067056;28;20380;-71
2022/05/17 03:35:59;;;;;;;;;;;15.90;89.20;;;;;;5063885;28;19940;-71
2022/05/17 03:38:25;;;;;;;;;;;15.90;89.20;;;;;;5058508;28;19912;-71
2022/05/17 03:40:52;;;;;;;;;;;15.90;89.10;;;;;;5047157;28;19916;-71
2022/05/17 03:43:19;;;;;;;;;;;15.80;89.10;;;;;;5066473;28;19908;-71
2022/05/17 03:45:44;;;;;;;;;;;15.80;89.10;;;;;;5063855;28;19912;-71
2022/05/17 03:48:10;;;;;;;;;;;15.80;89.00;;;;;;5066643;28;19920;-71
2022/05/17 03:50:35;;;;;;;;;;;15.80;89.40;;;;;;5066435;28;19916;-71
2022/05/17 03:53:01;;;;;;;;;;;15.80;89.20;;;;;;5041146;28;20104;-71
2022/05/17 03:55:27;;;;;;;;;;;15.80;89.40;;;;;;5046202;28;20351;-71
2022/05/17 03:57:53;;;;;;;;;;;15.80;89.80;;;;;;5050340;28;19913;-71
2022/05/17 04:00:18;;;;;;;;;;;15.80;89.70;;;;;;5046344;28;19918;-71
2022/05/17 04:02:44;;;;;;;;;;;15.80;89.90;;;;;;5057607;28;19917;-71
2022/05/17 04:05:10;;;;;;;;;;;15.80;89.70;;;;;;5066363;28;19951;-71
2022/05/17 04:07:35;;;;;;;;;;;15.80;89.80;;;;;;5053648;28;20008;-71
2022/05/17 04:10:01;;;;;;;;;;;15.80;89.70;;;;;;5046385;28;19917;-71
2022/05/17 04:12:26;;;;;;;;;;;15.80;89.80;;;;;;5051208;28;19923;-71
2022/05/17 04:14:54;;;;;;;;;;;15.80;90.00;;;;;;5066456;28;19919;-71
2022/05/17 04:17:20;;;;;;;;;;;15.80;89.80;;;;;;5063584;28;19967;-71
2022/05/17 04:19:45;;;;;;;;;;;15.80;89.70;;;;;;5065970;28;19947;-71
2022/05/17 04:22:11;;;;;;;;;;;15.80;89.40;;;;;;5063562;28;20453;-71
2022/05/17 04:24:38;;;;;;;;;;;15.80;89.80;;;;;;5053300;28;19912;-71
2022/05/17 04:27:04;;;;;;;;;;;15.80;89.70;;;;;;5032506;28;19928;-71
2022/05/17 04:29:29;;;;;;;;;;;15.80;89.70;;;;;;5064487;28;20453;-71
2022/05/17 04:31:55;;;;;;;;;;;15.80;89.50;;;;;;5066216;28;19917;-71
2022/05/17 04:34:20;;;;;;;;;;;15.80;89.60;;;;;;5063695;28;19960;-71
2022/05/17 04:36:46;;;;;;;;;;;15.80;89.50;;;;;;5065583;28;20395;-71
2022/05/17 04:39:12;;;;;;;;;;;15.80;89.20;;;;;;5062825;28;19970;-71
2022/05/17 04:41:37;;;;;;;;;;;15.80;88.80;;;;;;5065739;28;19916;-71
2022/05/17 04:44:03;;;;;;;;;;;15.80;88.80;;;;;;5045040;28;19909;-71
2022/05/17 04:46:28;;;;;;;;;;;15.80;88.50;;;;;;5065222;28;19916;-71
2022/05/17 04:48:54;;;;;;;;;;;15.80;88.50;;;;;;5062703;28;19912;-71
2022/05/17 04:51:19;;;;;;;;;;;15.80;88.20;;;;;;5065369;28;19928;-71
2022/05/17 04:53:45;;;;;;;;;;;15.80;88.70;;;;;;5041596;28;20015;-71
2022/05/17 04:56:11;;;;;;;;;;;15.80;88.90;;;;;;5065051;28;20289;-71
2022/05/17 04:58:37;;;;;;;;;;;15.80;88.90;;;;;;5062381;28;19960;-71
2022/05/17 05:01:03;;;;;;;;;;;15.80;88.60;;;;;;5065568;28;20005;-71
2022/05/17 05:03:29;;;;;;;;;;;15.80;88.50;;;;;;5063567;28;19912;-71
2022/05/17 05:05:54;;;;;;;;;;;15.80;87.80;;;;;;5037293;28;19948;-71
2022/05/17 05:08:20;;;;;;;;;;;15.80;87.50;;;;;;5026838;28;19913;-71
2022/05/17 05:10:45;;;;;;;;;;;15.80;87.60;;;;;;5060078;28;19967;-71
2022/05/17 05:13:13;;;;;;;;;;;15.90;87.40;;;;;;5064765;28;20619;-71
2022/05/17 05:15:39;;;;;;;;;;;15.90;87.50;;;;;;5062276;28;19966;-71
2022/05/17 05:18:05;;;;;;;;;;;15.90;87.40;;;;;;5052430;28;19924;-71
2022/05/17 05:20:30;;;;;;;;;;;15.90;87.60;;;;;;5036281;28;20639;-71
2022/05/17 05:22:56;;;;;;;;;;;15.90;87.60;;;;;;5045280;28;19923;-71
2022/05/17 05:25:21;;;;;;;;;;;15.90;87.50;;;;;;5051410;28;20012;-71
2022/05/17 05:27:47;;;;;;;;;;;16.00;87.60;;;;;;5046012;28;19916;-71
2022/05/17 05:30:14;;;;;;;;;;;16.00;87.80;;;;;;5048496;28;19917;-70
2022/05/17 05:32:39;;;;;;;;;;;16.00;87.70;;;;;;5065211;28;19948;-71
2022/05/17 05:35:05;;;;;;;;;;;16.00;87.50;;;;;;5062434;28;20526;-71
2022/05/17 05:37:30;;;;;;;;;;;16.10;87.70;;;;;;5063980;28;19916;-71
2022/05/17 05:39:56;;;;;;;;;;;16.10;87.70;;;;;;5043507;28;19921;-71
2022/05/17 05:42:22;;;;;;;;;;;16.10;87.60;;;;;;5064388;28;19963;-71
2022/05/17 05:44:47;;;;;;;;;;;16.10;87.60;;;;;;5065072;28;19913;-71
2022/05/17 05:47:12;;;;;;;;;;;16.10;87.60;;;;;;5062015;28;19916;-71
2022/05/17 05:49:38;;;;;;;;;;;16.20;87.70;;;;;;5064868;28;20058;-71
2022/05/17 05:52:04;;;;;;;;;;;16.20;87.70;;;;;;5053928;28;20298;-71
2022/05/17 05:54:29;;;;;;;;;;;16.20;87.70;;;;;;5056564;28;19909;-71
2022/05/17 05:56:58;;;;;;;;;;;16.20;87.60;;;;;;5043839;28;19928;-71
2022/05/17 05:59:23;;;;;;;;;;;16.30;87.50;;;;;;5046885;28;19913;-71
2022/05/17 06:01:49;;;;;;;;;;;16.30;87.50;;;;;;5062000;28;19923;-71
2022/05/17 06:04:14;;;;;;;;;;;16.30;87.60;;;;;;5064659;28;20113;-71
2022/05/17 06:06:42;;;;;;;;;;;16.30;87.50;;;;;;5056604;28;19916;-70
2022/05/17 06:09:07;;;;;;;;;;;16.40;87.80;;;;;;5050391;28;19917;-71
2022/05/17 06:11:33;;;;;;;;;;;16.40;87.60;;;;;;5044304;28;19921;-71
2022/05/17 06:14:00;;;;;;;;;;;16.50;87.70;;;;;;5064247;28;19939;-71
2022/05/17 06:16:25;;;;;;;;;;;16.50;87.90;;;;;;5055934;28;20388;-71
2022/05/17 06:18:51;;;;;;;;;;;16.60;88.50;;;;;;5064557;28;19920;-71
2022/05/17 06:21:16;;;;;;;;;;;16.60;88.00;;;;;;5067725;28;19974;-71
2022/05/17 06:23:42;;;;;;;;;;;16.60;87.90;;;;;;5065120;28;19917;-71
2022/05/17 06:26:07;;;;;;;;;;;16.70;88.00;;;;;;5061979;28;20296;-71
2022/05/17 06:28:33;;;;;;;;;;;16.70;88.00;;;;;;5060236;28;19935;-71
2022/05/17 06:30:58;;;;;;;;;;;16.70;87.90;;;;;;5067733;28;20585;-71
2022/05/17 06:33:24;;;;;;;;;;;16.80;87.90;;;;;;5063847;28;20007;-71
2022/05/17 06:35:50;;;;;;;;;;;16.80;87.80;;;;;;5066947;28;19916;-71
2022/05/17 06:38:16;;;;;;;;;;;16.80;87.50;;;;;;5057825;28;20316;-71
2022/05/17 06:40:41;;;;;;;;;;;16.80;88.30;;;;;;5047810;28;19917;-71
2022/05/17 06:43:07;;;;;;;;;;;16.90;87.10;;;;;;5052125;28;19982;-71
2022/05/17 06:45:33;;;;;;;;;;;16.90;86.90;;;;;;5067271;28;19912;-71
2022/05/17 06:48:00;;;;;;;;;;;16.90;86.90;;;;;;5065268;28;19917;-71
2022/05/17 06:50:26;;;;;;;;;;;17.00;87.30;;;;;;5067715;28;19921;-71
2022/05/17 06:52:52;;;;;;;;;;;17.00;86.80;;;;;;5050661;28;20373;-71
2022/05/17 06:55:17;;;;;;;;;;;17.10;86.60;;;;;;5067263;28;19939;-71
2022/05/17 06:57:43;;;;;;;;;;;17.10;86.50;;;;;;5043844;28;19953;-71
2022/05/17 07:00:11;;;;;;;;;;;17.10;86.70;;;;;;4997804;28;20007;-71
2022/05/17 07:02:37;;;;;;;;;;;17.20;86.20;;;;;;5005931;28;20007;-71
2022/05/17 07:05:03;;;;;;;;;;;17.20;85.70;;;;;;5007615;28;19923;-71
2022/05/17 07:07:28;;;;;;;;;;;17.20;85.80;;;;;;5016308;28;19923;-71
2022/05/17 07:15:22;;;;;;;;;;;17.40;85.70;;;;;;5033744;28;19917;-71
2022/05/17 07:17:48;;;;;;;;;;;17.40;85.70;;;;;;5040050;28;19921;-71
2022/05/17 07:20:14;;;;;;;;;;;17.40;85.30;;;;;;5031596;28;19924;-71
2022/05/17 07:22:40;;;;;;;;;;;17.50;85.30;;;;;;4995854;28;19921;-71
2022/05/17 07:25:06;;;;;;;;;;;17.50;85.40;;;;;;4993087;28;19916;-71
2022/05/17 07:27:32;;;;;;;;;;;17.50;85.00;;;;;;4993095;28;19982;-71
2022/05/17 07:29:57;;;;;;;;;;;17.60;84.80;;;;;;5035397;28;19974;-71
2022/05/17 07:32:23;;;;;;;;;;;17.60;84.90;;;;;;5037460;28;19962;-71
2022/05/17 07:34:48;;;;;;;;;;;17.70;84.60;;;;;;5018527;28;19920;-71
2022/05/17 07:37:14;;;;;;;;;;;17.70;84.50;;;;;;5012558;28;19956;-71
2022/05/17 07:39:40;;;;;;;;;;;17.80;84.20;;;;;;5028379;28;20015;-71
2022/05/17 07:42:05;;;;;;;;;;;17.80;84.30;;;;;;5014637;28;21612;-71
2022/05/17 07:44:31;;;;;;;;;;;17.80;83.60;;;;;;5005182;28;19920;-71
2022/05/17 07:46:57;;;;;;;;;;;17.90;83.60;;;;;;5011223;28;19924;-71
2022/05/17 07:49:23;;;;;;;;;;;17.90;84.40;;;;;;5033320;28;20455;-71
2022/05/17 07:51:48;;;;;;;;;;;18.00;83.80;;;;;;5024214;28;20019;-71
2022/05/17 07:54:14;;;;;;;;;;;18.10;83.40;;;;;;5035973;28;19967;-71
2022/05/17 07:56:39;;;;;;;;;;;18.10;83.30;;;;;;5035038;28;19958;-71
2022/05/17 07:59:05;;;;;;;;;;;18.10;83.40;;;;;;5037230;28;20480;-71
2022/05/17 08:01:30;;;;;;;;;;;18.10;82.90;;;;;;5036663;28;20530;-71
2022/05/17 08:03:56;;;;;;;;;;;18.20;82.90;;;;;;5020995;28;19919;-71
2022/05/17 08:06:22;;;;;;;;;;;18.20;83.30;;;;;;5012041;28;19925;-71
2022/05/17 08:08:47;;;;;;;;;;;18.20;82.90;;;;;;5031656;28;20349;-71
2022/05/17 08:11:13;;;;;;;;;;;18.30;83.10;;;;;;5031755;28;19998;-71
2022/05/17 08:13:38;;;;;;;;;;;18.40;82.50;;;;;;5039503;28;20327;-71
2022/05/17 08:16:04;;;;;;;;;;;18.40;82.30;;;;;;5035778;28;19924;-71
2022/05/17 08:18:30;;;;;;;;;;;18.40;82.10;;;;;;5013894;28;20673;-71
2022/05/17 08:20:56;;;;;;;;;;;18.50;82.00;;;;;;5030523;28;20386;-71
2022/05/17 08:23:21;;;;;;;;;;;18.50;82.10;;;;;;5037096;28;20377;-71
2022/05/17 08:28:31;;;;;;;;;;;18.60;82.10;;;;;;5037779;28;19932;-71
2022/05/17 08:30:56;;;;;;;;;;;18.60;83.20;;;;;;5022512;28;19921;-71
2022/05/17 08:33:26;;;;;;;;;;;18.70;82.30;;;;;;5026641;28;20020;-71
2022/05/17 08:35:55;;;;;;;;;;;18.70;82.30;;;;;;5038148;28;19920;-71
2022/05/17 08:38:28;;;;;;;;;;;18.70;82.50;;;;;;5026312;28;19931;-71
2022/05/17 08:41:09;;;;;;;;;;;18.70;82.00;;;;;;5005499;28;19913;-71
2022/05/17 08:43:41;;;;;;;;;;;18.80;82.00;;;;;;5013030;28;19974;-71
2022/05/17 08:46:28;;;;;;;;;;;18.80;81.60;;;;;;5032819;28;19978;-72
2022/05/17 08:48:55;;;;;;;;;;;18.80;81.90;;;;;;5022738;28;20015;-71
2022/05/17 08:51:44;;;;;;;;;;;18.90;82.00;;;;;;5026388;28;19917;-71
2022/05/17 08:54:12;;;;;;;;;;;18.90;82.50;;;;;;5024946;28;19973;-71
2022/05/17 08:56:40;;;;;;;;;;;18.90;81.90;;;;;;5036004;28;20369;-72
2022/05/17 08:59:06;;;;;;;;;;;19.00;81.90;;;;;;5035455;28;20016;-71
2022/05/17 09:01:43;;;;;;;;;;;19.00;81.90;;;;;;5037730;28;20690;-71
2022/05/17 09:04:14;;;;;;;;;;;19.00;82.10;;;;;;5036030;28;20538;-71
2022/05/17 09:06:52;;;;;;;;;;;19.00;82.00;;;;;;5021317;28;20446;-71
2022/05/17 09:09:24;;;;;;;;;;;19.00;81.80;;;;;;5037107;28;19921;-71
2022/05/17 09:11:54;;;;;;;;;;;19.00;81.60;;;;;;5036181;28;20369;-71
2022/05/17 09:14:22;;;;;;;;;;;19.00;81.60;;;;;;5036270;28;20034;-71
2022/05/17 09:17:28;;;;;;;;;;;19.10;81.30;;;;;;5036180;28;19919;-71
2022/05/17 09:19:54;;;;;;;;;;;19.10;81.80;;;;;;4962137;28;19941;-71
2022/05/17 09:22:20;;;;;;;;;;;19.20;81.30;;;;;;4961231;28;19914;-71
2022/05/17 09:24:46;;;;;;;;;;;19.20;81.20;;;;;;4995897;28;19923;-71
2022/05/17 09:27:28;;;;;;;;;;;19.30;81.00;;;;;;5034514;28;19994;-71
2022/05/17 09:29:57;;;;;;;;;;;19.30;80.90;;;;;;5017113;28;19963;-71
2022/05/17 09:32:29;;;;;;;;;;;19.40;81.70;;;;;;5032059;28;20765;-72
2022/05/17 09:35:21;;;;;;;;;;;19.40;81.30;;;;;;5034498;28;20372;-71
2022/05/17 09:37:50;;;;;;;;;;;19.50;80.60;;;;;;5033526;28;19964;-71
2022/05/17 09:40:22;;;;;;;;;;;19.50;80.30;;;;;;5030530;28;20008;-71
2022/05/17 09:42:54;;;;;;;;;;;19.50;80.30;;;;;;5035893;28;19909;-72
2022/05/17 09:45:20;;;;;;;;;;;19.60;80.70;;;;;;5027165;28;19921;-71
2022/05/17 09:48:00;;;;;;;;;;;19.60;80.70;;;;;;4995106;28;19924;-71
2022/05/17 09:53:15;;;;;;;;;;;19.70;80.00;;;;;;5036980;28;19963;-71
2022/05/17 09:55:46;;;;;;;;;;;19.80;80.30;;;;;;5036036;28;19959;-71
2022/05/17 09:58:27;;;;;;;;;;;19.80;80.00;;;;;;5033354;28;19960;-71
2022/05/17 10:00:54;;;;;;;;;;;19.80;80.20;;;;;;5037292;28;20007;-71
2022/05/17 10:03:26;;;;;;;;;;;19.80;79.70;;;;;;5042280;28;19913;-71
2022/05/17 10:05:56;;;;;;;;;;;19.90;79.80;;;;;;5036168;28;19921;-71
2022/05/17 10:08:23;;;;;;;;;;;20.00;79.70;;;;;;5037423;28;19970;-71
2022/05/17 10:11:00;;;;;;;;;;;20.00;79.30;;;;;;5034543;28;19927;-71
2022/05/17 10:13:29;;;;;;;;;;;20.10;79.00;;;;;;5040835;28;19912;-71
2022/05/17 10:16:07;;;;;;;;;;;20.20;79.40;;;;;;5037325;28;19924;-71
2022/05/17 10:18:36;;;;;;;;;;;20.20;78.70;;;;;;5037107;28;20015;-71
2022/05/17 10:21:11;;;;;;;;;;;20.20;78.80;;;;;;5031421;28;20354;-71
2022/05/17 10:23:53;;;;;;;;;;;20.30;78.70;;;;;;5037545;28;19916;-71
2022/05/17 10:26:22;;;;;;;;;;;20.30;78.90;;;;;;5035332;28;19917;-71
2022/05/17 10:29:08;;;;;;;;;;;20.30;78.80;;;;;;5039806;28;19948;-71
2022/05/17 10:31:53;;;;;;;;;;;20.30;79.40;;;;;;5035713;28;19925;-71
2022/05/17 10:34:38;;;;;;;;;;;20.40;78.50;;;;;;5037326;28;19996;-71
2022/05/17 10:37:07;;;;;;;;;;;20.40;79.00;;;;;;5039071;28;19999;-71
2022/05/17 10:39:35;;;;;;;;;;;20.50;78.70;;;;;;5036062;28;19927;-71
2022/05/17 10:42:01;;;;;;;;;;;20.40;78.50;;;;;;5037838;28;19917;-71
2022/05/17 10:44:37;;;;;;;;;;;20.50;78.30;;;;;;5034360;28;20315;-71
2022/05/17 10:47:07;;;;;;;;;;;20.50;78.30;;;;;;5030075;28;19917;-71
2022/05/17 10:49:44;;;;;;;;;;;20.50;78.30;;;;;;5008766;28;19936;-71
2022/05/17 10:52:10;;;;;;;;;;;20.50;78.40;;;;;;5034444;28;19989;-71
2022/05/17 10:54:58;;;;;;;;;;;20.60;78.10;;;;;;5036739;28;20409;-71
2022/05/17 10:57:30;;;;;;;;;;;20.60;78.00;;;;;;5032296;28;20023;-71
2022/05/17 10:59:55;;;;;;;;;;;20.70;77.70;;;;;;5039812;28;19917;-71
2022/05/17 11:02:33;;;;;;;;;;;20.80;77.60;;;;;;5033342;28;19916;-71
2022/05/17 11:05:04;;;;;;;;;;;20.80;77.40;;;;;;5038538;28;20328;-71
2022/05/17 11:07:32;;;;;;;;;;;20.90;77.00;;;;;;5030201;28;19999;-71
2022/05/17 11:10:01;;;;;;;;;;;21.00;77.00;;;;;;5032884;28;19956;-71
2022/05/17 11:12:28;;;;;;;;;;;21.10;76.80;;;;;;5034986;28;19917;-71
2022/05/17 11:14:54;;;;;;;;;;;21.10;76.90;;;;;;5032205;28;19913;-71
2022/05/17 11:17:38;;;;;;;;;;;21.20;76.60;;;;;;5039921;28;19917;-71
2022/05/17 11:20:10;;;;;;;;;;;21.20;76.40;;;;;;5021272;28;19913;-71
2022/05/17 11:22:58;;;;;;;;;;;21.30;76.60;;;;;;5032754;28;19928;-71
2022/05/17 11:25:23;;;;;;;;;;;21.40;76.30;;;;;;5031570;28;19913;-71
2022/05/17 11:28:07;;;;;;;;;;;21.40;76.00;;;;;;5022494;28;19928;-71
2022/05/17 11:30:34;;;;;;;;;;;21.50;76.20;;;;;;5037551;28;19932;-71
2022/05/17 11:33:18;;;;;;;;;;;21.50;76.00;;;;;;5038790;28;19921;-71
2022/05/17 11:35:54;;;;;;;;;;;21.50;75.80;;;;;;5037808;28;19924;-71
2022/05/17 11:38:41;;;;;;;;;;;21.60;76.00;;;;;;5032861;28;19935;-71
2022/05/17 11:41:06;;;;;;;;;;;21.60;75.90;;;;;;5030167;28;20572;-71
2022/05/17 11:43:40;;;;;;;;;;;21.60;76.50;;;;;;5037466;28;19924;-71
2022/05/17 11:46:06;;;;;;;;;;;21.60;76.20;;;;;;5031110;28;19921;-71
2022/05/17 11:48:45;;;;;;;;;;;21.60;76.10;;;;;;5036693;28;19923;-71
2022/05/17 11:51:10;;;;;;;;;;;21.60;76.30;;;;;;5033749;28;19928;-71
2022/05/17 11:53:41;;;;;;;;;;;21.60;76.10;;;;;;5039753;28;19917;-71
2022/05/17 11:56:15;;;;;;;;;;;21.70;76.30;;;;;;5035453;28;19921;-71
2022/05/17 11:58:42;;;;;;;;;;;21.60;76.10;;;;;;5024834;28;19926;-71
2022/05/17 12:01:26;;;;;;;;;;;21.60;76.40;;;;;;4994158;28;19921;-71
2022/05/17 12:03:56;;;;;;;;;;;21.60;76.30;;;;;;5034415;28;19917;-71
2022/05/17 12:06:39;;;;;;;;;;;21.60;76.70;;;;;;5028654;28;19952;-71
2022/05/17 12:09:11;;;;;;;;;;;21.60;76.90;;;;;;5034221;28;20456;-71
2022/05/17 12:11:46;;;;;;;;;;;21.60;77.30;;;;;;5022044;28;19925;-71
2022/05/17 12:14:34;;;;;;;;;;;21.60;77.60;;;;;;5026189;28;19917;-71
2022/05/17 12:17:25;;;;;;;;;;;21.60;77.50;;;;;;5032923;28;19920;-71
2022/05/17 12:19:56;;;;;;;;;;;21.50;77.30;;;;;;5035442;28;20458;-71
2022/05/17 12:22:23;;;;;;;;;;;21.50;77.50;;;;;;5022852;28;19998;-71
2022/05/17 12:24:49;;;;;;;;;;;21.50;77.30;;;;;;5039273;28;19909;-71
2022/05/17 12:27:20;;;;;;;;;;;21.50;77.30;;;;;;5033968;28;19971;-71
2022/05/17 12:32:44;;;;;;;;;;;21.50;77.30;;;;;;5028979;28;20022;-71
2022/05/17 12:35:10;;;;;;;;;;;21.50;77.80;;;;;;5036584;28;20547;-71
2022/05/17 12:37:40;;;;;;;;;;;21.50;78.20;;;;;;5037011;28;19921;-71
2022/05/17 12:43:02;;;;;;;;;;;21.40;78.30;;;;;;5035216;28;19923;-71
2022/05/17 12:45:33;;;;;;;;;;;21.40;78.40;;;;;;5038793;28;20596;-71
2022/05/17 12:48:01;;;;;;;;;;;21.40;78.60;;;;;;5034798;28;19917;-71
2022/05/17 12:50:45;;;;;;;;;;;21.40;78.80;;;;;;5032858;28;20353;-71
2022/05/17 12:53:16;;;;;;;;;;;21.40;78.90;;;;;;5032663;28;20303;-71
2022/05/17 12:55:54;;;;;;;;;;;21.40;79.10;;;;;;5035789;28;19923;-71
2022/05/17 12:58:21;;;;;;;;;;;21.30;79.10;;;;;;5031366;28;19948;-71
2022/05/17 13:00:51;;;;;;;;;;;21.30;79.20;;;;;;5030310;28;19913;-71
2022/05/17 13:03:18;;;;;;;;;;;21.30;79.10;;;;;;5032672;28;19923;-71
2022/05/17 13:05:48;;;;;;;;;;;21.30;79.10;;;;;;5030157;28;19940;-71
2022/05/17 13:08:19;;;;;;;;;;;21.30;79.30;;;;;;5026616;28;20423;-71
2022/05/17 13:10:58;;;;;;;;;;;21.30;79.40;;;;;;5032597;28;19916;-71
2022/05/17 13:13:24;;;;;;;;;;;21.20;79.60;;;;;;5037539;28;19924;-71
2022/05/17 13:15:52;;;;;;;;;;;21.20;79.60;;;;;;5033838;28;19944;-71
2022/05/17 13:18:18;;;;;;;;;;;21.20;79.70;;;;;;5033548;28;19948;-72
2022/05/17 13:20:49;;;;;;;;;;;21.20;79.90;;;;;;5028268;28;19974;-72
2022/05/17 13:23:24;;;;;;;;;;;21.20;80.00;;;;;;5030021;28;19997;-71
2022/05/17 13:25:51;;;;;;;;;;;21.20;80.00;;;;;;5032938;28;19963;-71
2022/05/17 13:28:23;;;;;;;;;;;21.20;80.00;;;;;;5033677;28;20673;-71
2022/05/17 13:30:49;;;;;;;;;;;21.10;80.00;;;;;;5029966;28;19921;-71
2022/05/17 13:33:28;;;;;;;;;;;21.20;80.00;;;;;;5033726;28;19921;-72
2022/05/17 13:36:05;;;;;;;;;;;21.10;79.90;;;;;;5029311;28;19913;-71
2022/05/17 13:38:33;;;;;;;;;;;21.10;79.70;;;;;;5032948;28;19917;-71
2022/05/17 13:41:03;;;;;;;;;;;21.10;79.70;;;;;;5036845;28;19917;-71
2022/05/17 13:43:34;;;;;;;;;;;21.10;79.60;;;;;;5036556;28;20063;-72
2022/05/17 13:46:15;;;;;;;;;;;21.10;79.50;;;;;;5033185;28;19924;-71
2022/05/17 13:48:53;;;;;;;;;;;21.10;79.60;;;;;;5018062;28;20624;-71
2022/05/17 13:51:24;;;;;;;;;;;21.20;79.90;;;;;;5033241;28;19921;-71
2022/05/17 13:53:51;;;;;;;;;;;21.20;79.90;;;;;;5031420;28;19967;-71
2022/05/17 13:56:20;;;;;;;;;;;21.10;80.20;;;;;;5033199;28;20062;-72
2022/05/17 13:58:46;;;;;;;;;;;21.20;80.20;;;;;;5029638;28;20087;-71
2022/05/17 14:01:15;;;;;;;;;;;21.20;80.30;;;;;;5025021;28;20023;-71
2022/05/17 14:03:42;;;;;;;;;;;21.10;80.10;;;;;;5036755;28;20011;-71
2022/05/17 14:06:07;;;;;;;;;;;21.10;80.10;;;;;;5031548;28;20069;-71
2022/05/17 14:14:12;;;;;;;;;;;21.10;80.30;;;;;;5008920;28;19924;-71
2022/05/17 14:16:40;;;;;;;;;;;21.10;80.60;;;;;;5037730;28;19927;-71
2022/05/17 14:19:05;;;;;;;;;;;21.10;80.30;;;;;;5038853;28;19916;-71
2022/05/17 14:21:31;;;;;;;;;;;21.10;80.20;;;;;;5035998;28;19920;-71
2022/05/17 14:23:57;;;;;;;;;;;21.10;80.30;;;;;;5034588;28;20008;-71
2022/05/17 14:26:24;;;;;;;;;;;21.00;80.50;;;;;;5032707;28;20393;-71
2022/05/17 14:28:49;;;;;;;;;;;21.10;80.90;;;;;;5036822;28;19963;-71
2022/05/17 14:31:17;;;;;;;;;;;21.00;81.10;;;;;;5037366;28;20012;-71
2022/05/17 14:33:43;;;;;;;;;;;21.00;81.00;;;;;;5034975;28;19999;-71
2022/05/17 14:36:16;;;;;;;;;;;21.00;81.30;;;;;;5036609;28;19917;-71
2022/05/17 14:38:42;;;;;;;;;;;21.00;81.50;;;;;;5029944;28;19938;-71
2022/05/17 14:41:07;;;;;;;;;;;21.10;81.70;;;;;;5039715;28;19922;-71
2022/05/17 14:43:33;;;;;;;;;;;21.10;81.90;;;;;;5040910;28;19952;-71
2022/05/17 14:45:58;;;;;;;;;;;21.10;81.90;;;;;;5039352;28;20001;-71